Home   Weather   USA   Manteo   Past weeks
Flag for USA

Past Weather in Manteo, North Carolina, USA — Yesterday and Last 2 Weeks

Currently: 63 °F. Passing clouds. (Weather station: Manteo / Dare County Regional, USA). See more current weather

Past Weather in Manteo — Graph

°F

Manteo Temperature Yesterday

Maximum temperature yesterday: 65 °F (at 1:55 pm)
Minimum temperature yesterday: 45 °F (at 12:15 am)
Average temperature yesterday: 58 °F

High & Low Weather Summary for the Past Weeks

 TemperatureHumidityPressure
High76 °F (Apr 11, 3:35 pm)99% (Apr 10, 2:55 am)30.47 "Hg (Apr 10, 2:55 am)
Low36 °F (Apr 2, 6:35 am)25% (Apr 4, 2:15 pm)29.53 "Hg (Apr 11, 3:55 pm)
Average58 °F70%30.02 "Hg
* Reported Mar 31 5:15 am — Apr 15 5:15 am, Manteo. Weather by CustomWeather, © 2021

Note: Actual official high and low records may vary slightly from our data, if they occured in-between our weather recording intervals... More about our weather records

Manteo Weather History for the Previous 24 Hours

Scroll right to see more
 ConditionsComfort  
Time TempWeatherWind HumidityBarometerVisibility
5:15 am
Thu, Apr 15
63 °FOvercast.No wind95%29.74 "Hg10 mi
4:35 am64 °FPassing clouds.6 mph94%29.75 "Hg10 mi
4:15 am64 °FPartly cloudy.6 mph94%29.75 "Hg10 mi
3:55 am64 °FMostly cloudy.8 mph93%29.76 "Hg10 mi
3:35 am63 °FMostly cloudy.12 mph95%29.77 "Hg10 mi
3:15 am64 °FOvercast.12 mph94%29.78 "Hg5 mi
2:55 am64 °FMostly cloudy.17 mph92%29.79 "Hg7 mi
2:35 am65 °FOvercast.16 mph92%29.79 "Hg7 mi
2:15 am66 °FOvercast.16 mph91%29.80 "Hg10 mi
1:55 am65 °FOvercast.14 mph94%29.80 "Hg4 mi
1:15 am66 °FOvercast.17 mph88%29.80 "Hg10 mi
12:55 am64 °FMostly cloudy.8 mph92%29.82 "Hg10 mi
12:35 am64 °FMostly cloudy.10 mph88%29.84 "Hg10 mi
12:15 am63 °FMostly cloudy.10 mph93%29.86 "Hg10 mi
11:55 pm
Wed, Apr 14
60 °FMostly cloudy.8 mph94%29.88 "Hg2 mi
11:35 pm60 °FMostly cloudy.6 mph93%29.89 "Hg10 mi
11:15 pm60 °FOvercast.9 mph89%29.90 "Hg7 mi
10:55 pm62 °FMostly cloudy.8 mph83%29.92 "Hg10 mi
10:35 pm63 °FMostly cloudy.9 mph78%29.93 "Hg10 mi
10:15 pm62 °FMostly cloudy.10 mph78%29.94 "Hg10 mi
9:55 pm62 °FMostly cloudy.8 mph75%29.95 "Hg10 mi
9:35 pm62 °FMostly cloudy.12 mph78%29.95 "Hg10 mi
9:15 pm61 °FPartly cloudy.9 mph80%29.95 "Hg10 mi
8:55 pm61 °FPassing clouds.9 mph79%29.95 "Hg10 mi
8:15 pm63 °FClear.16 mph73%29.96 "Hg10 mi
7:55 pm63 °FClear.16 mph66%29.98 "Hg10 mi
7:35 pm62 °FClear.15 mph60%29.98 "Hg10 mi
7:15 pm62 °FSunny.13 mph65%29.99 "Hg10 mi
6:55 pm63 °FScattered clouds.10 mph66%29.99 "Hg10 mi
6:15 pm63 °FBroken clouds.13 mph60%30.00 "Hg10 mi
5:55 pm62 °FPartly sunny.12 mph61%30.00 "Hg10 mi
5:35 pm63 °FScattered clouds.12 mph59%30.02 "Hg10 mi
5:15 pm63 °FScattered clouds.9 mph53%30.01 "Hg10 mi
4:55 pm64 °FSunny.13 mph52%30.01 "Hg10 mi
4:35 pm65 °FSunny.12 mph53%30.01 "Hg10 mi
4:15 pm64 °FSunny.10 mph54%30.02 "Hg10 mi
3:55 pm65 °FSunny.12 mph56%30.04 "Hg10 mi
3:35 pm65 °FSunny.12 mph56%30.05 "Hg10 mi
3:15 pm65 °FPartly sunny.15 mph53%30.05 "Hg10 mi
2:55 pm65 °FOvercast.15 mph52%30.06 "Hg10 mi
2:35 pm64 °FOvercast.13 mph54%30.07 "Hg10 mi
2:15 pm64 °FPartly sunny.13 mph52%30.08 "Hg10 mi
1:55 pm65 °FSunny.10 mph48%30.09 "Hg10 mi
1:35 pm65 °FSunny.7 mph51%30.10 "Hg10 mi
1:15 pm65 °FSunny.10 mph49%30.11 "Hg10 mi
12:55 pm64 °FSunny.12 mph53%30.11 "Hg10 mi
12:35 pm63 °FSunny.10 mph56%30.12 "Hg10 mi
12:15 pm62 °FSunny.8 mph57%30.12 "Hg10 mi
11:55 am62 °FSunny.8 mph56%30.13 "Hg10 mi
11:35 am62 °FSunny.9 mph60%30.13 "Hg10 mi
11:15 am62 °FSunny.6 mph62%30.13 "Hg10 mi
10:55 am61 °FSunny.6 mph63%30.14 "Hg10 mi
10:35 am61 °FSunny.3 mph63%30.15 "Hg10 mi
10:15 am60 °FSunny.No wind63%30.16 "Hg10 mi
9:55 am58 °FSunny.3 mph65%30.16 "Hg10 mi
9:35 am58 °FSunny.3 mph69%30.16 "Hg10 mi
9:15 am58 °FSunny.3 mph72%30.16 "Hg10 mi
8:55 am58 °FSunny.No wind66%30.16 "Hg10 mi
8:35 am56 °FSunny.3 mph80%30.16 "Hg10 mi
8:15 am55 °FSunny.No wind83%30.17 "Hg10 mi
7:55 am54 °FSunny.3 mph84%30.16 "Hg10 mi
7:35 am53 °FSunny.3 mph86%30.16 "Hg10 mi
7:15 am50 °FSunny.No wind91%30.15 "Hg10 mi
6:55 am49 °FSunny.No wind93%30.15 "Hg10 mi
6:35 am50 °FSunny.No wind91%30.14 "Hg10 mi
6:15 am50 °FClear.5 mph91%30.14 "Hg10 mi
Weather by CustomWeather, © 2021

See weather overview